sensor_id;sensor_type;location;lat;lon;timestamp;temperature;humidity
20845;DHT22;10583;49.084;8.646;2023-02-13T00:02:14;1.30;99.90
20845;DHT22;10583;49.084;8.646;2023-02-13T00:04:41;1.30;99.90
20845;DHT22;10583;49.084;8.646;2023-02-13T00:07:08;1.40;99.90
20845;DHT22;10583;49.084;8.646;2023-02-13T00:09:36;1.50;99.90
20845;DHT22;10583;49.084;8.646;2023-02-13T00:12:05;1.50;99.90
20845;DHT22;10583;49.084;8.646;2023-02-13T00:14:34;1.40;99.90
20845;DHT22;10583;49.084;8.646;2023-02-13T00:17:01;1.60;99.90
20845;DHT22;10583;49.084;8.646;2023-02-13T00:19:28;1.60;99.90
20845;DHT22;10583;49.084;8.646;2023-02-13T00:21:54;1.60;99.90
20845;DHT22;10583;49.084;8.646;2023-02-13T00:24:21;1.50;99.90
20845;DHT22;10583;49.084;8.646;2023-02-13T00:26:48;1.60;99.90
20845;DHT22;10583;49.084;8.646;2023-02-13T00:29:16;1.80;99.90
20845;DHT22;10583;49.084;8.646;2023-02-13T00:31:43;2.00;99.90
20845;DHT22;10583;49.084;8.646;2023-02-13T00:34:09;2.20;99.90
20845;DHT22;10583;49.084;8.646;2023-02-13T00:36:36;2.20;99.90
20845;DHT22;10583;49.084;8.646;2023-02-13T00:39:03;2.20;99.90
20845;DHT22;10583;49.084;8.646;2023-02-13T00:41:29;2.00;99.90
20845;DHT22;10583;49.084;8.646;2023-02-13T00:43:56;1.80;99.90
20845;DHT22;10583;49.084;8.646;2023-02-13T00:46:24;1.70;99.90
20845;DHT22;10583;49.084;8.646;2023-02-13T00:48:51;1.70;99.90
20845;DHT22;10583;49.084;8.646;2023-02-13T00:51:17;1.70;99.90
20845;DHT22;10583;49.084;8.646;2023-02-13T00:53:44;1.80;99.90
20845;DHT22;10583;49.084;8.646;2023-02-13T00:56:11;2.00;99.90
20845;DHT22;10583;49.084;8.646;2023-02-13T00:58:37;2.00;99.90
20845;DHT22;10583;49.084;8.646;2023-02-13T01:01:04;2.00;99.90
20845;DHT22;10583;49.084;8.646;2023-02-13T01:03:32;2.00;99.90
20845;DHT22;10583;49.084;8.646;2023-02-13T01:05:59;1.90;99.90
20845;DHT22;10583;49.084;8.646;2023-02-13T01:08:26;2.00;99.90
20845;DHT22;10583;49.084;8.646;2023-02-13T01:10:53;2.00;99.90
20845;DHT22;10583;49.084;8.646;2023-02-13T01:13:20;2.00;99.90
20845;DHT22;10583;49.084;8.646;2023-02-13T01:15:47;2.20;99.90
20845;DHT22;10583;49.084;8.646;2023-02-13T01:18:16;2.20;99.90
20845;DHT22;10583;49.084;8.646;2023-02-13T01:20:45;2.20;99.90
20845;DHT22;10583;49.084;8.646;2023-02-13T01:23:20;2.20;99.90
20845;DHT22;10583;49.084;8.646;2023-02-13T01:25:47;2.20;99.90
20845;DHT22;10583;49.084;8.646;2023-02-13T01:28:16;2.10;99.90
20845;DHT22;10583;49.084;8.646;2023-02-13T01:30:42;2.10;99.90
20845;DHT22;10583;49.084;8.646;2023-02-13T01:33:09;2.00;99.90
20845;DHT22;10583;49.084;8.646;2023-02-13T01:35:38;2.00;99.90
20845;DHT22;10583;49.084;8.646;2023-02-13T01:38:06;2.00;99.90
20845;DHT22;10583;49.084;8.646;2023-02-13T01:40:32;2.00;99.90
20845;DHT22;10583;49.084;8.646;2023-02-13T01:42:59;2.00;99.90
20845;DHT22;10583;49.084;8.646;2023-02-13T01:45:27;2.00;99.90
20845;DHT22;10583;49.084;8.646;2023-02-13T01:47:55;1.90;99.90
20845;DHT22;10583;49.084;8.646;2023-02-13T01:50:26;1.80;99.90
20845;DHT22;10583;49.084;8.646;2023-02-13T01:52:57;1.90;99.90
20845;DHT22;10583;49.084;8.646;2023-02-13T01:55:28;2.00;99.90
20845;DHT22;10583;49.084;8.646;2023-02-13T01:58:01;2.00;99.90
20845;DHT22;10583;49.084;8.646;2023-02-13T02:00:28;2.10;99.90
20845;DHT22;10583;49.084;8.646;2023-02-13T02:02:59;2.20;99.90
20845;DHT22;10583;49.084;8.646;2023-02-13T02:05:29;2.20;99.90
20845;DHT22;10583;49.084;8.646;2023-02-13T02:07:57;2.20;99.90
20845;DHT22;10583;49.084;8.646;2023-02-13T02:10:27;2.20;99.90
20845;DHT22;10583;49.084;8.646;2023-02-13T02:12:59;2.30;99.90
20845;DHT22;10583;49.084;8.646;2023-02-13T02:15:28;2.30;99.90
20845;DHT22;10583;49.084;8.646;2023-02-13T02:17:55;2.30;99.90
20845;DHT22;10583;49.084;8.646;2023-02-13T02:20:36;2.30;99.90
20845;DHT22;10583;49.084;8.646;2023-02-13T02:23:44;2.30;99.90
20845;DHT22;10583;49.084;8.646;2023-02-13T02:26:49;2.40;99.90
20845;DHT22;10583;49.084;8.646;2023-02-13T02:29:33;2.30;99.90
20845;DHT22;10583;49.084;8.646;2023-02-13T02:32:15;2.30;99.90
20845;DHT22;10583;49.084;8.646;2023-02-13T02:34:53;2.20;99.90
20845;DHT22;10583;49.084;8.646;2023-02-13T02:37:29;2.20;99.90
20845;DHT22;10583;49.084;8.646;2023-02-13T02:40:09;2.20;99.90
20845;DHT22;10583;49.084;8.646;2023-02-13T02:42:46;2.20;99.90
20845;DHT22;10583;49.084;8.646;2023-02-13T02:45:22;2.20;99.90
20845;DHT22;10583;49.084;8.646;2023-02-13T02:47:58;2.20;99.90
20845;DHT22;10583;49.084;8.646;2023-02-13T02:50:48;2.20;99.90
20845;DHT22;10583;49.084;8.646;2023-02-13T02:53:24;2.20;99.90
20845;DHT22;10583;49.084;8.646;2023-02-13T02:55:55;2.10;99.90
20845;DHT22;10583;49.084;8.646;2023-02-13T02:58:29;2.10;99.90
20845;DHT22;10583;49.084;8.646;2023-02-13T03:01:17;2.10;99.90
20845;DHT22;10583;49.084;8.646;2023-02-13T03:04:05;2.00;99.90
20845;DHT22;10583;49.084;8.646;2023-02-13T03:06:57;2.00;99.90
20845;DHT22;10583;49.084;8.646;2023-02-13T03:09:28;2.00;99.90
20845;DHT22;10583;49.084;8.646;2023-02-13T03:12:18;2.00;99.90
20845;DHT22;10583;49.084;8.646;2023-02-13T03:15:03;2.00;99.90
20845;DHT22;10583;49.084;8.646;2023-02-13T03:17:31;2.00;99.90
20845;DHT22;10583;49.084;8.646;2023-02-13T03:20:22;1.90;99.90
20845;DHT22;10583;49.084;8.646;2023-02-13T03:23:12;1.90;99.90
20845;DHT22;10583;49.084;8.646;2023-02-13T03:25:57;1.90;99.90
20845;DHT22;10583;49.084;8.646;2023-02-13T03:28:33;1.90;99.90
20845;DHT22;10583;49.084;8.646;2023-02-13T03:31:27;1.90;99.90
20845;DHT22;10583;49.084;8.646;2023-02-13T03:34:01;1.80;99.90
20845;DHT22;10583;49.084;8.646;2023-02-13T03:36:36;1.80;99.90
20845;DHT22;10583;49.084;8.646;2023-02-13T03:39:31;1.80;99.90
20845;DHT22;10583;49.084;8.646;2023-02-13T03:42:04;1.80;99.90
20845;DHT22;10583;49.084;8.646;2023-02-13T03:44:35;1.90;99.90
20845;DHT22;10583;49.084;8.646;2023-02-13T03:47:05;1.90;99.90
20845;DHT22;10583;49.084;8.646;2023-02-13T03:49:36;1.90;99.90
20845;DHT22;10583;49.084;8.646;2023-02-13T03:52:25;1.90;99.90
20845;DHT22;10583;49.084;8.646;2023-02-13T03:54:55;1.90;99.90
20845;DHT22;10583;49.084;8.646;2023-02-13T03:57:43;1.80;99.90
20845;DHT22;10583;49.084;8.646;2023-02-13T04:00:32;1.80;99.90
20845;DHT22;10583;49.084;8.646;2023-02-13T04:03:04;1.80;99.90
20845;DHT22;10583;49.084;8.646;2023-02-13T04:05:38;1.80;99.90
20845;DHT22;10583;49.084;8.646;2023-02-13T04:08:06;1.80;99.90
20845;DHT22;10583;49.084;8.646;2023-02-13T04:10:35;1.80;99.90
20845;DHT22;10583;49.084;8.646;2023-02-13T04:13:09;1.80;99.90
20845;DHT22;10583;49.084;8.646;2023-02-13T04:15:42;1.80;99.90
20845;DHT22;10583;49.084;8.646;2023-02-13T04:18:15;1.80;99.90
20845;DHT22;10583;49.084;8.646;2023-02-13T04:20:43;1.80;99.90
20845;DHT22;10583;49.084;8.646;2023-02-13T04:23:11;1.70;99.90
20845;DHT22;10583;49.084;8.646;2023-02-13T04:25:40;1.80;99.90
20845;DHT22;10583;49.084;8.646;2023-02-13T04:28:08;1.80;99.90
20845;DHT22;10583;49.084;8.646;2023-02-13T04:30:35;1.80;99.90
20845;DHT22;10583;49.084;8.646;2023-02-13T04:33:01;1.70;99.90
20845;DHT22;10583;49.084;8.646;2023-02-13T04:35:28;1.70;99.90
20845;DHT22;10583;49.084;8.646;2023-02-13T04:37:55;1.70;99.90
20845;DHT22;10583;49.084;8.646;2023-02-13T04:40:23;1.70;99.90
20845;DHT22;10583;49.084;8.646;2023-02-13T04:42:49;1.60;99.90
20845;DHT22;10583;49.084;8.646;2023-02-13T04:45:16;1.60;99.90
20845;DHT22;10583;49.084;8.646;2023-02-13T04:47:48;1.60;99.90
20845;DHT22;10583;49.084;8.646;2023-02-13T04:50:15;1.50;99.90
20845;DHT22;10583;49.084;8.646;2023-02-13T04:52:42;1.40;99.90
20845;DHT22;10583;49.084;8.646;2023-02-13T04:55:09;1.40;99.90
20845;DHT22;10583;49.084;8.646;2023-02-13T04:57:37;1.40;99.90
20845;DHT22;10583;49.084;8.646;2023-02-13T05:00:05;1.40;99.90
20845;DHT22;10583;49.084;8.646;2023-02-13T05:02:32;1.40;99.90
20845;DHT22;10583;49.084;8.646;2023-02-13T05:04:59;1.40;99.90
20845;DHT22;10583;49.084;8.646;2023-02-13T05:07:26;1.40;99.90
20845;DHT22;10583;49.084;8.646;2023-02-13T05:09:52;1.30;99.90
20845;DHT22;10583;49.084;8.646;2023-02-13T05:12:19;1.30;99.90
20845;DHT22;10583;49.084;8.646;2023-02-13T05:14:47;1.20;99.90
20845;DHT22;10583;49.084;8.646;2023-02-13T05:17:14;1.20;99.90
20845;DHT22;10583;49.084;8.646;2023-02-13T05:19:41;1.20;99.90
20845;DHT22;10583;49.084;8.646;2023-02-13T05:22:08;1.10;99.90
20845;DHT22;10583;49.084;8.646;2023-02-13T05:24:52;1.10;99.90
20845;DHT22;10583;49.084;8.646;2023-02-13T05:27:19;1.00;99.90
20845;DHT22;10583;49.084;8.646;2023-02-13T05:29:47;1.00;99.90
20845;DHT22;10583;49.084;8.646;2023-02-13T05:32:14;1.00;99.90
20845;DHT22;10583;49.084;8.646;2023-02-13T05:34:41;0.90;99.90
20845;DHT22;10583;49.084;8.646;2023-02-13T05:37:07;0.80;99.90
20845;DHT22;10583;49.084;8.646;2023-02-13T05:39:34;0.80;99.90
20845;DHT22;10583;49.084;8.646;2023-02-13T05:42:01;0.70;99.90
20845;DHT22;10583;49.084;8.646;2023-02-13T05:44:29;0.70;99.90
20845;DHT22;10583;49.084;8.646;2023-02-13T05:46:57;0.70;99.90
20845;DHT22;10583;49.084;8.646;2023-02-13T05:49:23;0.80;99.90
20845;DHT22;10583;49.084;8.646;2023-02-13T05:51:50;0.70;99.90
20845;DHT22;10583;49.084;8.646;2023-02-13T05:54:17;0.70;99.90
20845;DHT22;10583;49.084;8.646;2023-02-13T05:56:44;0.70;99.90
20845;DHT22;10583;49.084;8.646;2023-02-13T05:59:11;0.70;99.90
20845;DHT22;10583;49.084;8.646;2023-02-13T06:01:38;0.70;99.90
20845;DHT22;10583;49.084;8.646;2023-02-13T06:04:06;0.70;99.90
20845;DHT22;10583;49.084;8.646;2023-02-13T06:06:32;0.70;99.90
20845;DHT22;10583;49.084;8.646;2023-02-13T06:08:59;0.70;99.90
20845;DHT22;10583;49.084;8.646;2023-02-13T06:11:26;0.70;99.90
20845;DHT22;10583;49.084;8.646;2023-02-13T06:13:52;0.70;99.90
20845;DHT22;10583;49.084;8.646;2023-02-13T06:16:19;0.60;99.90
20845;DHT22;10583;49.084;8.646;2023-02-13T06:18:47;0.60;99.90
20845;DHT22;10583;49.084;8.646;2023-02-13T06:21:15;0.70;99.90
20845;DHT22;10583;49.084;8.646;2023-02-13T06:23:41;0.60;99.90
20845;DHT22;10583;49.084;8.646;2023-02-13T06:26:08;0.70;99.90
20845;DHT22;10583;49.084;8.646;2023-02-13T06:28:35;0.70;99.90
20845;DHT22;10583;49.084;8.646;2023-02-13T06:31:02;0.60;99.90
20845;DHT22;10583;49.084;8.646;2023-02-13T06:33:29;0.60;99.90
20845;DHT22;10583;49.084;8.646;2023-02-13T06:35:56;0.60;99.90
20845;DHT22;10583;49.084;8.646;2023-02-13T06:38:24;0.60;99.90
20845;DHT22;10583;49.084;8.646;2023-02-13T06:40:51;0.60;99.90
20845;DHT22;10583;49.084;8.646;2023-02-13T06:43:18;0.60;99.90
20845;DHT22;10583;49.084;8.646;2023-02-13T06:45:45;0.60;99.90
20845;DHT22;10583;49.084;8.646;2023-02-13T06:48:12;0.60;99.90
20845;DHT22;10583;49.084;8.646;2023-02-13T06:50:39;0.60;99.90
20845;DHT22;10583;49.084;8.646;2023-02-13T06:53:06;0.60;99.90
20845;DHT22;10583;49.084;8.646;2023-02-13T06:55:34;0.50;99.90
20845;DHT22;10583;49.084;8.646;2023-02-13T06:58:03;0.60;99.90
20845;DHT22;10583;49.084;8.646;2023-02-13T07:00:30;0.50;99.90
20845;DHT22;10583;49.084;8.646;2023-02-13T07:03:01;0.60;99.90
20845;DHT22;10583;49.084;8.646;2023-02-13T07:05:28;0.50;99.90
20845;DHT22;10583;49.084;8.646;2023-02-13T07:07:55;0.60;99.90
20845;DHT22;10583;49.084;8.646;2023-02-13T07:10:22;0.60;99.90
20845;DHT22;10583;49.084;8.646;2023-02-13T07:12:50;0.60;99.90
20845;DHT22;10583;49.084;8.646;2023-02-13T07:15:16;0.60;99.90
20845;DHT22;10583;49.084;8.646;2023-02-13T07:17:43;0.60;99.90
20845;DHT22;10583;49.084;8.646;2023-02-13T07:20:10;0.60;99.90
20845;DHT22;10583;49.084;8.646;2023-02-13T07:22:37;0.60;99.90
20845;DHT22;10583;49.084;8.646;2023-02-13T07:25:05;0.60;99.90
20845;DHT22;10583;49.084;8.646;2023-02-13T07:27:31;0.60;99.90
20845;DHT22;10583;49.084;8.646;2023-02-13T07:29:59;0.70;99.90
20845;DHT22;10583;49.084;8.646;2023-02-13T07:32:26;0.80;99.90
20845;DHT22;10583;49.084;8.646;2023-02-13T07:34:53;0.80;99.90
20845;DHT22;10583;49.084;8.646;2023-02-13T07:37:19;0.90;99.90
20845;DHT22;10583;49.084;8.646;2023-02-13T07:39:46;0.90;99.90
20845;DHT22;10583;49.084;8.646;2023-02-13T07:42:12;0.90;99.90
20845;DHT22;10583;49.084;8.646;2023-02-13T07:44:39;0.90;99.90
20845;DHT22;10583;49.084;8.646;2023-02-13T07:47:07;0.90;99.90
20845;DHT22;10583;49.084;8.646;2023-02-13T07:49:34;0.90;99.90
20845;DHT22;10583;49.084;8.646;2023-02-13T07:52:01;1.00;99.90
20845;DHT22;10583;49.084;8.646;2023-02-13T07:54:28;1.00;99.90
20845;DHT22;10583;49.084;8.646;2023-02-13T07:56:55;1.10;99.90
20845;DHT22;10583;49.084;8.646;2023-02-13T07:59:21;1.10;99.90
20845;DHT22;10583;49.084;8.646;2023-02-13T08:01:48;1.10;99.90
20845;DHT22;10583;49.084;8.646;2023-02-13T08:04:16;1.10;99.90
20845;DHT22;10583;49.084;8.646;2023-02-13T08:06:43;1.10;99.90
20845;DHT22;10583;49.084;8.646;2023-02-13T08:09:17;1.10;99.90
20845;DHT22;10583;49.084;8.646;2023-02-13T08:12:03;1.10;99.90
20845;DHT22;10583;49.084;8.646;2023-02-13T08:14:30;1.10;99.90
20845;DHT22;10583;49.084;8.646;2023-02-13T08:16:58;1.10;99.90
20845;DHT22;10583;49.084;8.646;2023-02-13T08:19:26;1.00;99.90
20845;DHT22;10583;49.084;8.646;2023-02-13T08:21:52;1.10;99.90
20845;DHT22;10583;49.084;8.646;2023-02-13T08:24:19;1.20;99.90
20845;DHT22;10583;49.084;8.646;2023-02-13T08:26:46;1.20;99.90
20845;DHT22;10583;49.084;8.646;2023-02-13T08:29:13;1.20;99.90
20845;DHT22;10583;49.084;8.646;2023-02-13T08:31:40;1.20;99.90
20845;DHT22;10583;49.084;8.646;2023-02-13T08:34:07;1.30;99.90
20845;DHT22;10583;49.084;8.646;2023-02-13T08:36:35;1.40;99.90
20845;DHT22;10583;49.084;8.646;2023-02-13T08:39:02;1.50;99.90
20845;DHT22;10583;49.084;8.646;2023-02-13T08:41:29;1.50;99.90
20845;DHT22;10583;49.084;8.646;2023-02-13T08:43:55;1.60;99.90
20845;DHT22;10583;49.084;8.646;2023-02-13T08:46:22;1.60;99.90
20845;DHT22;10583;49.084;8.646;2023-02-13T08:48:49;1.60;99.90
20845;DHT22;10583;49.084;8.646;2023-02-13T08:51:16;1.60;99.90
20845;DHT22;10583;49.084;8.646;2023-02-13T08:53:44;1.60;99.90
20845;DHT22;10583;49.084;8.646;2023-02-13T08:56:10;1.80;99.90
20845;DHT22;10583;49.084;8.646;2023-02-13T08:58:37;1.90;99.90
20845;DHT22;10583;49.084;8.646;2023-02-13T09:01:05;2.20;99.90
20845;DHT22;10583;49.084;8.646;2023-02-13T09:03:32;2.40;99.90
20845;DHT22;10583;49.084;8.646;2023-02-13T09:05:59;2.60;99.90
20845;DHT22;10583;49.084;8.646;2023-02-13T09:08:26;2.70;99.90
20845;DHT22;10583;49.084;8.646;2023-02-13T09:10:58;2.90;99.90
20845;DHT22;10583;49.084;8.646;2023-02-13T09:13:26;3.00;99.90
20845;DHT22;10583;49.084;8.646;2023-02-13T09:15:53;3.10;99.90
20845;DHT22;10583;49.084;8.646;2023-02-13T09:18:19;3.20;99.90
20845;DHT22;10583;49.084;8.646;2023-02-13T09:20:46;3.40;99.90
20845;DHT22;10583;49.084;8.646;2023-02-13T09:23:13;3.50;99.90
20845;DHT22;10583;49.084;8.646;2023-02-13T09:25:39;3.40;99.90
20845;DHT22;10583;49.084;8.646;2023-02-13T09:28:08;3.40;99.90
20845;DHT22;10583;49.084;8.646;2023-02-13T09:30:34;3.30;99.90
20845;DHT22;10583;49.084;8.646;2023-02-13T09:33:01;3.30;99.90
20845;DHT22;10583;49.084;8.646;2023-02-13T09:35:28;3.80;99.90
20845;DHT22;10583;49.084;8.646;2023-02-13T09:37:54;4.30;99.90
20845;DHT22;10583;49.084;8.646;2023-02-13T09:40:25;4.50;99.90
20845;DHT22;10583;49.084;8.646;2023-02-13T09:43:02;4.80;99.90
20845;DHT22;10583;49.084;8.646;2023-02-13T09:45:32;5.10;99.90
20845;DHT22;10583;49.084;8.646;2023-02-13T09:47:59;5.30;99.90
20845;DHT22;10583;49.084;8.646;2023-02-13T09:50:29;5.50;99.90
20845;DHT22;10583;49.084;8.646;2023-02-13T09:52:58;5.90;99.90
20845;DHT22;10583;49.084;8.646;2023-02-13T09:55:28;6.30;99.90
20845;DHT22;10583;49.084;8.646;2023-02-13T09:58:07;6.50;99.90
20845;DHT22;10583;49.084;8.646;2023-02-13T10:00:38;6.80;99.90
20845;DHT22;10583;49.084;8.646;2023-02-13T10:03:17;7.00;99.90
20845;DHT22;10583;49.084;8.646;2023-02-13T10:05:55;7.00;99.90
20845;DHT22;10583;49.084;8.646;2023-02-13T10:08:35;7.00;99.90
20845;DHT22;10583;49.084;8.646;2023-02-13T10:11:18;7.10;99.90
20845;DHT22;10583;49.084;8.646;2023-02-13T10:13:58;7.30;99.90
20845;DHT22;10583;49.084;8.646;2023-02-13T10:16:31;7.30;99.90
20845;DHT22;10583;49.084;8.646;2023-02-13T10:19:01;7.30;99.90
20845;DHT22;10583;49.084;8.646;2023-02-13T10:21:35;7.10;99.90
20845;DHT22;10583;49.084;8.646;2023-02-13T10:24:06;7.20;99.90
20845;DHT22;10583;49.084;8.646;2023-02-13T10:26:38;7.30;99.90
20845;DHT22;10583;49.084;8.646;2023-02-13T10:29:14;7.30;99.90
20845;DHT22;10583;49.084;8.646;2023-02-13T10:32:04;7.50;99.90
20845;DHT22;10583;49.084;8.646;2023-02-13T10:34:35;7.60;99.90
20845;DHT22;10583;49.084;8.646;2023-02-13T10:37:12;7.80;99.90
20845;DHT22;10583;49.084;8.646;2023-02-13T10:39:40;8.00;99.90
20845;DHT22;10583;49.084;8.646;2023-02-13T10:42:17;8.00;99.90
20845;DHT22;10583;49.084;8.646;2023-02-13T10:45:02;8.20;99.90
20845;DHT22;10583;49.084;8.646;2023-02-13T10:47:46;8.60;99.90
20845;DHT22;10583;49.084;8.646;2023-02-13T10:50:21;8.70;99.90
20845;DHT22;10583;49.084;8.646;2023-02-13T10:52:59;8.90;99.90
20845;DHT22;10583;49.084;8.646;2023-02-13T10:55:45;9.10;99.90
20845;DHT22;10583;49.084;8.646;2023-02-13T10:58:18;9.20;99.90
20845;DHT22;10583;49.084;8.646;2023-02-13T11:00:50;9.50;99.90
20845;DHT22;10583;49.084;8.646;2023-02-13T11:03:21;9.50;99.90
20845;DHT22;10583;49.084;8.646;2023-02-13T11:05:49;9.60;99.90
20845;DHT22;10583;49.084;8.646;2023-02-13T11:08:19;9.70;99.90
20845;DHT22;10583;49.084;8.646;2023-02-13T11:10:47;9.90;99.90
20845;DHT22;10583;49.084;8.646;2023-02-13T11:13:17;10.00;99.90
20845;DHT22;10583;49.084;8.646;2023-02-13T11:15:59;10.10;99.90
20845;DHT22;10583;49.084;8.646;2023-02-13T11:18:30;10.30;99.90
20845;DHT22;10583;49.084;8.646;2023-02-13T11:21:00;10.40;99.90
20845;DHT22;10583;49.084;8.646;2023-02-13T11:23:37;10.70;99.90
20845;DHT22;10583;49.084;8.646;2023-02-13T11:26:07;10.80;99.90
20845;DHT22;10583;49.084;8.646;2023-02-13T11:28:37;10.90;99.90
20845;DHT22;10583;49.084;8.646;2023-02-13T11:31:21;10.90;99.90
20845;DHT22;10583;49.084;8.646;2023-02-13T11:33:50;11.00;99.90
20845;DHT22;10583;49.084;8.646;2023-02-13T11:36:24;11.00;99.90
20845;DHT22;10583;49.084;8.646;2023-02-13T11:38:59;11.10;99.90
20845;DHT22;10583;49.084;8.646;2023-02-13T11:41:27;11.10;99.90
20845;DHT22;10583;49.084;8.646;2023-02-13T11:43:56;11.30;99.90
20845;DHT22;10583;49.084;8.646;2023-02-13T11:46:27;11.30;99.90
20845;DHT22;10583;49.084;8.646;2023-02-13T11:48:58;11.20;99.90
20845;DHT22;10583;49.084;8.646;2023-02-13T11:51:36;11.10;99.90
20845;DHT22;10583;49.084;8.646;2023-02-13T11:54:04;11.10;99.90
20845;DHT22;10583;49.084;8.646;2023-02-13T11:56:47;11.30;99.90
20845;DHT22;10583;49.084;8.646;2023-02-13T11:59:14;11.40;99.90
20845;DHT22;10583;49.084;8.646;2023-02-13T12:01:42;11.40;99.90
20845;DHT22;10583;49.084;8.646;2023-02-13T12:04:16;11.30;99.90
20845;DHT22;10583;49.084;8.646;2023-02-13T12:06:59;11.30;99.90
20845;DHT22;10583;49.084;8.646;2023-02-13T12:09:26;11.50;99.90
20845;DHT22;10583;49.084;8.646;2023-02-13T12:11:56;11.70;99.90
20845;DHT22;10583;49.084;8.646;2023-02-13T12:14:26;11.90;99.90
20845;DHT22;10583;49.084;8.646;2023-02-13T12:16:59;11.70;99.90
20845;DHT22;10583;49.084;8.646;2023-02-13T12:19:34;11.60;99.90
20845;DHT22;10583;49.084;8.646;2023-02-13T12:22:21;11.30;99.90
20845;DHT22;10583;49.084;8.646;2023-02-13T12:25:13;11.40;99.90
20845;DHT22;10583;49.084;8.646;2023-02-13T12:27:50;11.50;99.90
20845;DHT22;10583;49.084;8.646;2023-02-13T12:33:36;11.20;99.90
20845;DHT22;10583;49.084;8.646;2023-02-13T12:36:12;11.00;99.90
20845;DHT22;10583;49.084;8.646;2023-02-13T12:38:50;10.90;99.90
20845;DHT22;10583;49.084;8.646;2023-02-13T12:41:25;11.10;99.90
20845;DHT22;10583;49.084;8.646;2023-02-13T12:47:10;11.20;99.90
20845;DHT22;10583;49.084;8.646;2023-02-13T12:49:52;11.30;99.90
20845;DHT22;10583;49.084;8.646;2023-02-13T12:52:39;11.30;99.90
20845;DHT22;10583;49.084;8.646;2023-02-13T12:55:26;11.50;99.90
20845;DHT22;10583;49.084;8.646;2023-02-13T12:58:07;11.40;99.90
20845;DHT22;10583;49.084;8.646;2023-02-13T13:00:45;11.30;99.90
20845;DHT22;10583;49.084;8.646;2023-02-13T13:03:36;11.30;99.90
20845;DHT22;10583;49.084;8.646;2023-02-13T13:06:19;11.60;99.90
20845;DHT22;10583;49.084;8.646;2023-02-13T13:09:05;11.70;99.90
20845;DHT22;10583;49.084;8.646;2023-02-13T13:11:57;11.50;99.90
20845;DHT22;10583;49.084;8.646;2023-02-13T13:14:33;11.30;99.90
20845;DHT22;10583;49.084;8.646;2023-02-13T13:17:07;11.30;99.90
20845;DHT22;10583;49.084;8.646;2023-02-13T13:19:41;11.30;99.90
20845;DHT22;10583;49.084;8.646;2023-02-13T13:22:18;11.40;99.90
20845;DHT22;10583;49.084;8.646;2023-02-13T13:24:53;11.40;99.90
20845;DHT22;10583;49.084;8.646;2023-02-13T13:27:25;11.60;99.90
20845;DHT22;10583;49.084;8.646;2023-02-13T13:29:56;11.50;99.90
20845;DHT22;10583;49.084;8.646;2023-02-13T13:32:25;11.60;99.90
20845;DHT22;10583;49.084;8.646;2023-02-13T13:34:54;11.30;99.90
20845;DHT22;10583;49.084;8.646;2023-02-13T13:37:28;11.20;99.90
20845;DHT22;10583;49.084;8.646;2023-02-13T13:40:02;11.20;99.90
20845;DHT22;10583;49.084;8.646;2023-02-13T13:42:39;11.20;99.90
20845;DHT22;10583;49.084;8.646;2023-02-13T13:45:24;11.00;99.90
20845;DHT22;10583;49.084;8.646;2023-02-13T13:48:30;11.00;99.90
20845;DHT22;10583;49.084;8.646;2023-02-13T13:51:02;11.00;99.90
20845;DHT22;10583;49.084;8.646;2023-02-13T13:53:30;10.90;99.90
20845;DHT22;10583;49.084;8.646;2023-02-13T13:56:06;10.90;99.90
20845;DHT22;10583;49.084;8.646;2023-02-13T13:58:37;10.90;99.90
20845;DHT22;10583;49.084;8.646;2023-02-13T14:01:16;11.00;99.90
20845;DHT22;10583;49.084;8.646;2023-02-13T14:03:43;10.90;99.90
20845;DHT22;10583;49.084;8.646;2023-02-13T14:06:12;10.90;99.90
20845;DHT22;10583;49.084;8.646;2023-02-13T14:09:08;10.80;99.90
20845;DHT22;10583;49.084;8.646;2023-02-13T14:11:56;10.80;99.90
20845;DHT22;10583;49.084;8.646;2023-02-13T14:17:14;10.90;99.90
20845;DHT22;10583;49.084;8.646;2023-02-13T14:19:45;10.80;99.90
20845;DHT22;10583;49.084;8.646;2023-02-13T14:22:30;10.90;99.90
20845;DHT22;10583;49.084;8.646;2023-02-13T14:24:59;10.90;99.90
20845;DHT22;10583;49.084;8.646;2023-02-13T14:27:29;10.80;99.90
20845;DHT22;10583;49.084;8.646;2023-02-13T14:29:57;10.90;99.90
20845;DHT22;10583;49.084;8.646;2023-02-13T14:32:28;10.90;99.90
20845;DHT22;10583;49.084;8.646;2023-02-13T14:34:58;10.90;99.90
20845;DHT22;10583;49.084;8.646;2023-02-13T14:37:33;10.90;99.90
20845;DHT22;10583;49.084;8.646;2023-02-13T14:43:22;10.80;99.90
20845;DHT22;10583;49.084;8.646;2023-02-13T14:45:54;10.80;99.90
20845;DHT22;10583;49.084;8.646;2023-02-13T14:48:27;10.80;99.90
20845;DHT22;10583;49.084;8.646;2023-02-13T14:50:58;10.70;99.90
20845;DHT22;10583;49.084;8.646;2023-02-13T14:53:29;10.60;99.90
20845;DHT22;10583;49.084;8.646;2023-02-13T14:55:59;10.60;99.90
20845;DHT22;10583;49.084;8.646;2023-02-13T14:58:31;10.60;99.90
20845;DHT22;10583;49.084;8.646;2023-02-13T15:01:03;10.60;99.90
20845;DHT22;10583;49.084;8.646;2023-02-13T15:03:36;10.60;99.90
20845;DHT22;10583;49.084;8.646;2023-02-13T15:06:09;10.60;99.90
20845;DHT22;10583;49.084;8.646;2023-02-13T15:08:44;10.60;99.90
20845;DHT22;10583;49.084;8.646;2023-02-13T15:11:12;10.50;99.90
20845;DHT22;10583;49.084;8.646;2023-02-13T15:14:20;10.50;99.90
20845;DHT22;10583;49.084;8.646;2023-02-13T15:16:51;10.50;99.90
20845;DHT22;10583;49.084;8.646;2023-02-13T15:19:20;10.50;99.90
20845;DHT22;10583;49.084;8.646;2023-02-13T15:21:51;10.50;99.90
20845;DHT22;10583;49.084;8.646;2023-02-13T15:24:19;10.50;99.90
20845;DHT22;10583;49.084;8.646;2023-02-13T15:26:53;10.40;99.90
20845;DHT22;10583;49.084;8.646;2023-02-13T15:29:21;10.30;99.90
20845;DHT22;10583;49.084;8.646;2023-02-13T15:31:48;10.30;99.90
20845;DHT22;10583;49.084;8.646;2023-02-13T15:34:24;10.30;99.90
20845;DHT22;10583;49.084;8.646;2023-02-13T15:36:51;10.20;99.90
20845;DHT22;10583;49.084;8.646;2023-02-13T15:39:21;10.20;99.90
20845;DHT22;10583;49.084;8.646;2023-02-13T15:41:50;10.20;99.90
20845;DHT22;10583;49.084;8.646;2023-02-13T15:44:19;10.20;99.90
20845;DHT22;10583;49.084;8.646;2023-02-13T15:46:50;10.20;99.90
20845;DHT22;10583;49.084;8.646;2023-02-13T15:49:19;10.20;99.90
20845;DHT22;10583;49.084;8.646;2023-02-13T15:51:47;10.10;99.90
20845;DHT22;10583;49.084;8.646;2023-02-13T15:54:23;10.10;99.90
20845;DHT22;10583;49.084;8.646;2023-02-13T15:56:51;10.00;99.90
20845;DHT22;10583;49.084;8.646;2023-02-13T15:59:18;10.00;99.90
20845;DHT22;10583;49.084;8.646;2023-02-13T16:01:46;9.90;99.90
20845;DHT22;10583;49.084;8.646;2023-02-13T16:04:15;9.80;99.90
20845;DHT22;10583;49.084;8.646;2023-02-13T16:06:44;9.80;99.90
20845;DHT22;10583;49.084;8.646;2023-02-13T16:09:22;9.70;99.90
20845;DHT22;10583;49.084;8.646;2023-02-13T16:11:50;9.70;99.90
20845;DHT22;10583;49.084;8.646;2023-02-13T16:14:19;9.60;99.90
20845;DHT22;10583;49.084;8.646;2023-02-13T16:16:49;9.60;99.90
20845;DHT22;10583;49.084;8.646;2023-02-13T16:19:24;9.50;99.90
20845;DHT22;10583;49.084;8.646;2023-02-13T16:21:52;9.40;99.90
20845;DHT22;10583;49.084;8.646;2023-02-13T16:24:21;9.30;99.90